sensor_id;sensor_type;location;lat;lon;timestamp;P1;durP1;ratioP1;P2;durP2;ratioP2
45059;SDS011;30799;49.060;9.312;2022-12-20T20:57:20;4.97;;;1.67;;
45059;SDS011;30799;49.060;9.312;2022-12-20T20:59:48;4.10;;;1.77;;
45059;SDS011;30799;49.060;9.312;2022-12-20T21:02:14;8.45;;;2.00;;
45059;SDS011;30799;49.060;9.312;2022-12-20T21:04:41;4.22;;;1.75;;
45059;SDS011;30799;49.060;9.312;2022-12-20T21:07:24;4.82;;;1.88;;
45059;SDS011;30799;49.060;9.312;2022-12-20T21:09:51;6.53;;;1.85;;
45059;SDS011;30799;49.060;9.312;2022-12-20T21:12:17;5.40;;;1.60;;
45059;SDS011;30799;49.060;9.312;2022-12-20T21:14:47;4.90;;;1.92;;
45059;SDS011;30799;49.060;9.312;2022-12-20T21:17:34;3.92;;;1.77;;
45059;SDS011;30799;49.060;9.312;2022-12-20T21:20:01;4.82;;;1.70;;
45059;SDS011;30799;49.060;9.312;2022-12-20T21:22:29;1.55;;;1.45;;
45059;SDS011;30799;49.060;9.312;2022-12-20T21:24:56;4.40;;;1.67;;
45059;SDS011;30799;49.060;9.312;2022-12-20T21:29:50;17.02;;;8.27;;
45059;SDS011;30799;49.060;9.312;2022-12-20T21:32:17;24.40;;;13.73;;
45059;SDS011;30799;49.060;9.312;2022-12-20T21:34:43;25.20;;;13.07;;
45059;SDS011;30799;49.060;9.312;2022-12-20T21:37:10;23.48;;;11.88;;
45059;SDS011;30799;49.060;9.312;2022-12-20T21:39:37;26.95;;;14.70;;
45059;SDS011;30799;49.060;9.312;2022-12-20T21:42:03;31.75;;;16.17;;
45059;SDS011;30799;49.060;9.312;2022-12-20T21:44:32;36.85;;;17.33;;
45059;SDS011;30799;49.060;9.312;2022-12-20T21:46:59;30.77;;;17.45;;
45059;SDS011;30799;49.060;9.312;2022-12-20T21:49:25;27.48;;;16.65;;
45059;SDS011;30799;49.060;9.312;2022-12-20T21:51:52;31.52;;;16.38;;
45059;SDS011;30799;49.060;9.312;2022-12-20T21:54:21;27.70;;;15.43;;
45059;SDS011;30799;49.060;9.312;2022-12-20T21:56:48;22.95;;;14.05;;
45059;SDS011;30799;49.060;9.312;2022-12-20T21:59:15;28.30;;;15.73;;
45059;SDS011;30799;49.060;9.312;2022-12-20T22:01:42;26.38;;;15.27;;
45059;SDS011;30799;49.060;9.312;2022-12-20T22:04:11;26.75;;;14.75;;
45059;SDS011;30799;49.060;9.312;2022-12-20T22:06:39;24.55;;;14.65;;
45059;SDS011;30799;49.060;9.312;2022-12-20T22:09:07;25.65;;;14.15;;
45059;SDS011;30799;49.060;9.312;2022-12-20T22:11:35;24.95;;;14.07;;
45059;SDS011;30799;49.060;9.312;2022-12-20T22:14:04;23.27;;;13.68;;
45059;SDS011;30799;49.060;9.312;2022-12-20T22:16:31;22.23;;;14.18;;
45059;SDS011;30799;49.060;9.312;2022-12-20T22:19:00;23.50;;;14.13;;
45059;SDS011;30799;49.060;9.312;2022-12-20T22:21:27;24.27;;;14.15;;
45059;SDS011;30799;49.060;9.312;2022-12-20T22:23:56;24.10;;;14.13;;
45059;SDS011;30799;49.060;9.312;2022-12-20T22:26:25;24.23;;;13.73;;
45059;SDS011;30799;49.060;9.312;2022-12-20T22:28:54;21.73;;;13.40;;
45059;SDS011;30799;49.060;9.312;2022-12-20T22:33:52;21.27;;;13.65;;
45059;SDS011;30799;49.060;9.312;2022-12-20T22:36:20;21.27;;;13.65;;
45059;SDS011;30799;49.060;9.312;2022-12-20T22:38:51;22.60;;;12.95;;
45059;SDS011;30799;49.060;9.312;2022-12-20T22:41:22;22.35;;;13.55;;
45059;SDS011;30799;49.060;9.312;2022-12-20T22:43:51;23.90;;;13.40;;
45059;SDS011;30799;49.060;9.312;2022-12-20T22:46:19;20.88;;;12.13;;
45059;SDS011;30799;49.060;9.312;2022-12-20T22:48:46;19.80;;;13.70;;
45059;SDS011;30799;49.060;9.312;2022-12-20T22:51:15;18.92;;;12.07;;
45059;SDS011;30799;49.060;9.312;2022-12-20T22:53:44;19.73;;;13.00;;
45059;SDS011;30799;49.060;9.312;2022-12-20T22:56:12;20.42;;;12.55;;
45059;SDS011;30799;49.060;9.312;2022-12-20T22:58:40;23.45;;;13.25;;
45059;SDS011;30799;49.060;9.312;2022-12-20T23:01:08;20.42;;;12.40;;
45059;SDS011;30799;49.060;9.312;2022-12-20T23:03:39;17.75;;;11.88;;
45059;SDS011;30799;49.060;9.312;2022-12-20T23:06:07;22.52;;;12.60;;
45059;SDS011;30799;49.060;9.312;2022-12-20T23:08:36;19.40;;;12.15;;
45059;SDS011;30799;49.060;9.312;2022-12-20T23:11:05;21.95;;;12.25;;
45059;SDS011;30799;49.060;9.312;2022-12-20T23:13:56;18.40;;;12.57;;
45059;SDS011;30799;49.060;9.312;2022-12-20T23:16:41;18.52;;;12.30;;
45059;SDS011;30799;49.060;9.312;2022-12-20T23:19:08;18.88;;;11.73;;
45059;SDS011;30799;49.060;9.312;2022-12-20T23:21:35;21.98;;;12.63;;
45059;SDS011;30799;49.060;9.312;2022-12-20T23:24:20;19.33;;;12.00;;
45059;SDS011;30799;49.060;9.312;2022-12-20T23:26:47;17.63;;;11.80;;
45059;SDS011;30799;49.060;9.312;2022-12-20T23:29:13;20.88;;;12.52;;
45059;SDS011;30799;49.060;9.312;2022-12-20T23:31:40;18.00;;;11.77;;
45059;SDS011;30799;49.060;9.312;2022-12-20T23:34:07;15.80;;;11.23;;
45059;SDS011;30799;49.060;9.312;2022-12-20T23:36:33;19.25;;;11.75;;
45059;SDS011;30799;49.060;9.312;2022-12-20T23:39:00;19.42;;;12.38;;
45059;SDS011;30799;49.060;9.312;2022-12-20T23:41:28;17.85;;;12.02;;
45059;SDS011;30799;49.060;9.312;2022-12-20T23:43:55;18.73;;;11.18;;
45059;SDS011;30799;49.060;9.312;2022-12-20T23:46:22;17.73;;;11.10;;
45059;SDS011;30799;49.060;9.312;2022-12-20T23:48:50;17.63;;;11.88;;
45059;SDS011;30799;49.060;9.312;2022-12-20T23:51:17;16.02;;;10.75;;
45059;SDS011;30799;49.060;9.312;2022-12-20T23:53:45;17.80;;;11.13;;
45059;SDS011;30799;49.060;9.312;2022-12-20T23:56:13;17.35;;;10.80;;
45059;SDS011;30799;49.060;9.312;2022-12-20T23:58:42;16.88;;;11.20;;
